Time;durP1;ratioP1;P1;durP2;ratioP2;P2;SDS_P1;SDS_P2;PMS_P1;PMS_P2;Temp;Humidity;BMP_temperature;BMP_pressure;BME280_temperature;BME280_humidity;BME280_pressure;Samples;Min_cycle;Max_cycle;Signal;HPM_P1;HPM_P2
2022/09/16 00:03:56;;;;;;;1.58;0.50;;;;;;;21.08;47.82;101088.66;16135534;19;129417;-69
2022/09/16 00:09:18;;;;;;;1.05;0.30;;;;;;;21.04;48.01;101091.94;16134053;19;130091;-69
2022/09/16 00:14:39;;;;;;;2.47;0.40;;;;;;;21.03;47.73;101084.69;16133664;19;129897;-69
2022/09/16 00:20:01;;;;;;;1.20;0.30;;;;;;;21.03;47.63;101081.09;16132088;19;129763;-68
2022/09/16 00:25:23;;;;;;;6.20;0.40;;;;;;;21.02;47.47;101082.19;16131919;19;129240;-68
2022/09/16 00:30:45;;;;;;;1.33;0.38;;;;;;;21.02;47.88;101087.75;16131019;19;129802;-68
2022/09/16 00:36:15;;;;;;;2.03;0.40;;;;;;;21.02;47.67;101087.75;16129905;19;129569;-69
2022/09/16 00:41:37;;;;;;;4.28;0.40;;;;;;;21.00;47.72;101089.94;16133168;19;129347;-68
2022/09/16 00:46:58;;;;;;;1.13;0.30;;;;;;;20.98;47.63;101086.56;16128056;19;129609;-67
2022/09/16 00:52:20;;;;;;;0.70;0.30;;;;;;;20.98;47.81;101081.00;16129073;19;129885;-68
2022/09/16 00:57:44;;;;;;;0.50;0.22;;;;;;;20.97;47.82;101076.53;16130228;19;129734;-68
2022/09/16 01:03:06;;;;;;;0.75;0.25;;;;;;;20.95;47.61;101081.53;16133602;19;129744;-68
2022/09/16 01:08:27;;;;;;;0.75;0.30;;;;;;;20.94;47.66;101082.63;16127669;19;130901;-67
2022/09/16 01:13:51;;;;;;;1.27;0.30;;;;;;;20.94;47.61;101077.91;16131928;19;129900;-67
2022/09/16 01:19:54;;;;;;;1.67;0.47;;;;;;;20.94;47.38;101085.41;16134777;19;129669;-67
2022/09/16 01:25:50;;;;;;;2.67;0.50;;;;;;;20.92;47.61;101084.84;16117593;19;129198;-68
2022/09/16 01:31:29;;;;;;;2.05;0.60;;;;;;;20.90;47.37;101080.38;16119047;19;130265;-68
2022/09/16 01:36:57;;;;;;;1.58;0.32;;;;;;;20.88;47.81;101082.56;16115310;19;129699;-67
2022/09/16 01:42:28;;;;;;;1.85;0.40;;;;;;;20.87;47.52;101080.88;16113457;19;129025;-67
2022/09/16 01:47:59;;;;;;;1.17;0.30;;;;;;;20.87;47.62;101069.75;16116640;19;129424;-67
2022/09/16 01:53:33;;;;;;;0.93;0.20;;;;;;;20.87;47.65;101068.91;16116382;19;129260;-67
2022/09/16 01:59:01;;;;;;;1.52;0.35;;;;;;;20.85;47.65;101077.53;16122741;19;129201;-67
2022/09/16 02:04:31;;;;;;;0.47;0.25;;;;;;;20.85;47.52;101080.31;16138431;19;129531;-68
2022/09/16 02:09:57;;;;;;;1.17;0.30;;;;;;;20.83;47.45;101085.28;16140610;19;130481;-67
2022/09/16 02:15:22;;;;;;;1.55;0.30;;;;;;;20.83;47.65;101074.16;16141611;19;129432;-67
2022/09/16 02:20:46;;;;;;;0.80;0.20;;;;;;;20.82;47.40;101083.59;16140315;19;129252;-69
2022/09/16 02:26:14;;;;;;;1.10;0.40;;;;;;;20.81;47.80;101076.34;16139772;19;133306;-67
2022/09/16 02:31:38;;;;;;;0.30;0.10;;;;;;;20.81;47.56;101087.47;16137213;19;130040;-67
2022/09/16 02:37:07;;;;;;;1.08;0.30;;;;;;;20.81;47.42;101081.06;16134622;19;129301;-67
2022/09/16 02:42:30;;;;;;;0.20;0.20;;;;;;;20.81;47.74;101089.41;16132004;19;130079;-68
2022/09/16 02:47:52;;;;;;;1.00;0.40;;;;;;;20.79;47.58;101100.81;16132862;19;129478;-67
2022/09/16 02:53:31;;;;;;;0.60;0.20;;;;;;;20.79;47.54;101095.25;16130876;19;129495;-67
2022/09/16 02:58:54;;;;;;;0.20;0.20;;;;;;;20.77;47.76;101088.25;16134712;19;130302;-68
2022/09/16 03:04:18;;;;;;;1.00;0.30;;;;;;;20.77;47.34;101094.66;16128739;19;130319;-67
2022/09/16 03:09:44;;;;;;;1.80;0.50;;;;;;;20.74;47.47;101092.34;16130785;19;129961;-67
2022/09/16 03:15:21;;;;;;;0.57;0.30;;;;;;;20.74;47.25;101086.78;16130514;19;129401;-67
2022/09/16 03:21:05;;;;;;;1.23;0.30;;;;;;;20.74;47.21;101089.56;16134699;19;129598;-67
2022/09/16 03:26:47;;;;;;;0.85;0.20;;;;;;;20.74;47.21;101081.22;16132589;19;130049;-67
2022/09/16 03:32:22;;;;;;;1.00;0.10;;;;;;;20.72;47.19;101084.28;16128943;19;129595;-67
2022/09/16 03:37:45;;;;;;;0.37;0.13;;;;;;;20.70;47.25;101074.50;15981541;19;2933066;-67
2022/09/16 03:43:15;;;;;;;2.58;0.20;;;;;;;20.71;47.55;101065.06;16131498;19;130131;-67
2022/09/16 03:48:36;;;;;;;0.85;0.20;;;;;;;20.69;47.45;101072.81;16135876;19;129216;-67
2022/09/16 03:53:58;;;;;;;1.58;0.45;;;;;;;20.69;47.40;101075.59;16138327;19;129307;-67
2022/09/16 03:59:20;;;;;;;0.20;0.20;;;;;;;20.70;47.67;101082.84;16131231;19;130255;-67
2022/09/16 04:04:42;;;;;;;0.63;0.20;;;;;;;20.69;47.34;101078.38;16129920;19;129929;-66
2022/09/16 04:10:05;;;;;;;0.40;0.20;;;;;;;20.69;47.20;101083.94;16132313;19;130113;-66
2022/09/16 04:15:27;;;;;;;1.30;0.30;;;;;;;20.68;47.54;101087.81;16130441;19;129657;-67
2022/09/16 04:20:49;;;;;;;0.52;0.10;;;;;;;20.67;47.34;101075.84;16131628;19;129733;-68
2022/09/16 04:26:11;;;;;;;0.57;0.20;;;;;;;20.66;47.37;101074.16;16128674;19;130425;-67
2022/09/16 04:31:33;;;;;;;0.85;0.30;;;;;;;20.67;47.33;101069.47;16130119;19;129470;-67
2022/09/16 04:36:54;;;;;;;1.05;0.20;;;;;;;20.66;47.37;101073.34;16128180;19;129660;-67
2022/09/16 04:42:16;;;;;;;0.60;0.20;;;;;;;20.64;47.60;101076.38;16133611;19;130041;-67
2022/09/16 04:47:38;;;;;;;0.50;0.15;;;;;;;20.64;47.43;101075.53;16131965;19;130263;-68
2022/09/16 04:52:59;;;;;;;0.32;0.10;;;;;;;20.63;47.52;101080.25;16127524;19;129589;-67
2022/09/16 04:58:21;;;;;;;0.38;0.10;;;;;;;20.62;47.48;101074.94;16127495;19;130337;-66
2022/09/16 05:03:45;;;;;;;1.05;0.30;;;;;;;20.63;47.18;101084.97;16129856;19;130264;-67
2022/09/16 05:09:10;;;;;;;0.20;0.05;;;;;;;20.63;47.32;101087.75;16127386;19;129840;-67
2022/09/16 05:14:31;;;;;;;0.50;0.20;;;;;;;20.63;47.23;101084.97;16127868;19;129540;-67
2022/09/16 05:19:53;;;;;;;0.40;0.10;;;;;;;20.62;47.11;101086.06;16128644;19;132468;-67
2022/09/16 05:25:15;;;;;;;0.60;0.30;;;;;;;20.60;47.26;101087.16;16124831;19;130618;-67
2022/09/16 05:30:37;;;;;;;0.10;0.10;;;;;;;20.59;47.40;101096.59;16126501;19;129485;-66
2022/09/16 05:36:10;;;;;;;0.52;0.20;;;;;;;20.61;47.22;101096.34;16127332;19;129456;-67
2022/09/16 05:41:32;;;;;;;0.32;0.20;;;;;;;20.59;47.09;101107.72;16129005;19;130314;-67
2022/09/16 05:46:54;;;;;;;0.32;0.20;;;;;;;20.58;47.29;101114.38;16126108;19;129356;-66
2022/09/16 05:52:16;;;;;;;0.43;0.20;;;;;;;20.57;47.24;101107.13;16126807;19;129793;-67
2022/09/16 05:57:37;;;;;;;0.50;0.22;;;;;;;20.55;47.24;101103.78;16126930;19;129344;-66
2022/09/16 06:02:59;;;;;;;0.20;0.10;;;;;;;20.56;47.37;101108.22;16124743;19;130026;-69
2022/09/16 06:08:21;;;;;;;0.63;0.10;;;;;;;20.56;47.21;101104.59;16122566;19;129861;-68
2022/09/16 06:13:43;;;;;;;0.22;0.10;;;;;;;20.56;47.22;101112.94;16124924;19;128930;-68
2022/09/16 06:19:09;;;;;;;0.60;0.10;;;;;;;20.54;47.37;101118.78;16122645;19;129257;-73
2022/09/16 06:24:31;;;;;;;0.55;0.15;;;;;;;20.54;47.13;101137.38;16124718;19;129656;-74
2022/09/16 06:29:53;;;;;;;4.53;0.32;;;;;;;20.54;47.34;101135.44;16123796;19;129557;-72
2022/09/16 06:35:14;;;;;;;0.32;0.10;;;;;;;20.54;46.99;101120.69;16122587;19;130665;-72
2022/09/16 06:40:36;;;;;;;2.50;0.45;;;;;;;20.55;47.16;101112.13;16120119;19;129665;-65
2022/09/16 06:46:18;;;;;;;2.40;0.50;;;;;;;20.57;46.69;101109.91;16125875;19;130336;-64
2022/09/16 06:51:40;;;;;;;1.48;0.40;;;;;;;20.55;47.13;101112.13;16134819;19;129417;-64
2022/09/16 06:57:02;;;;;;;5.03;0.60;;;;;;;20.56;47.05;101124.06;16137977;19;129442;-65
2022/09/16 07:02:27;;;;;;;8.18;0.68;;;;;;;20.56;46.69;101124.88;16137521;19;129526;-64
2022/09/16 07:07:49;;;;;;;1.73;0.60;;;;;;;20.55;46.94;101131.56;16136936;19;129374;-65
2022/09/16 07:13:11;;;;;;;3.35;1.00;;;;;;;20.55;46.51;101130.72;16136287;19;129446;-64
2022/09/16 07:18:32;;;;;;;5.03;1.00;;;;;;;20.53;46.86;101125.41;16135402;19;130221;-64
2022/09/16 07:23:59;;;;;;;3.42;1.30;;;;;;;20.55;46.60;101130.72;16133489;19;130483;-65
2022/09/16 07:29:21;;;;;;;4.43;1.38;;;;;;;20.54;46.46;101129.88;16131976;19;130261;-64
2022/09/16 07:34:42;;;;;;;3.78;1.33;;;;;;;20.55;46.21;101131.56;16134202;19;129847;-65
2022/09/16 07:40:05;;;;;;;5.85;1.25;;;;;;;20.55;46.29;101141.84;16131950;19;129375;-64
2022/09/16 07:45:26;;;;;;;8.75;1.40;;;;;;;20.55;46.41;101151.03;16133501;19;129512;-64
2022/09/16 07:51:17;;;;;;;5.07;1.40;;;;;;;20.59;46.55;101146.63;16134283;19;133217;-64
2022/09/16 07:56:41;;;;;;;7.90;1.33;;;;;;;20.66;46.25;101162.31;16130383;19;130402;-65
2022/09/16 08:02:02;;;;;;;6.97;1.20;;;;;;;20.68;46.07;101157.31;16127620;19;129855;-62
2022/09/16 08:07:24;;;;;;;6.05;1.52;;;;;;;20.73;46.35;101157.41;16130764;19;129660;-65
2022/09/16 08:12:47;;;;;;;8.88;1.08;;;;;;;20.72;46.20;101152.94;16128707;19;129565;-65
2022/09/16 08:18:09;;;;;;;3.58;1.00;;;;;;;20.71;45.88;101159.59;16131081;19;129999;-64
2022/09/16 08:23:31;;;;;;;7.78;1.10;;;;;;;20.71;45.93;101165.13;16132982;19;129070;-64
2022/09/16 08:28:52;;;;;;;5.28;1.23;;;;;;;20.70;45.78;101189.34;16129909;19;129466;-64
2022/09/16 08:34:31;;;;;;;5.88;1.00;;;;;;;20.68;45.92;101196.22;16127300;19;129792;-64
2022/09/16 08:39:52;;;;;;;12.55;0.88;;;;;;;20.67;45.66;101183.44;16127125;19;130489;-66
2022/09/16 08:45:19;;;;;;;9.82;0.95;;;;;;;20.68;45.94;101190.66;16117406;19;130176;-67
2022/09/16 08:50:44;;;;;;;9.13;1.13;;;;;;;20.68;45.58;101188.75;16117544;19;129976;-67
2022/09/16 08:56:12;;;;;;;7.40;0.87;;;;;;;20.69;45.69;101195.13;16114304;19;131271;-66
2022/09/16 09:01:47;;;;;;;9.52;1.30;;;;;;;20.74;45.52;101198.00;16118913;19;130414;-67
2022/09/16 09:07:27;;;;;;;9.20;1.05;;;;;;;20.78;45.43;101193.66;16124698;19;130181;-67
2022/09/16 09:13:11;;;;;;;10.35;0.90;;;;;;;20.80;45.77;101202.56;16106928;19;130221;-67
2022/09/16 09:18:57;;;;;;;8.27;1.13;;;;;;;20.77;45.75;101203.09;16119679;19;129764;-67
2022/09/16 09:24:38;;;;;;;8.80;0.60;;;;;;;20.74;45.75;101214.69;16116945;19;129542;-65
2022/09/16 09:30:20;;;;;;;3.72;0.70;;;;;;;20.73;45.81;101202.72;16116960;19;130255;-66
2022/09/16 09:36:01;;;;;;;5.80;0.93;;;;;;;20.73;46.01;101199.09;16126136;19;129525;-66
2022/09/16 09:41:39;;;;;;;5.68;0.90;;;;;;;20.75;45.89;101189.44;16118922;19;130483;-66
2022/09/16 09:47:09;;;;;;;3.85;0.82;;;;;;;20.80;46.07;101202.56;16122230;19;129492;-65
2022/09/16 09:52:43;;;;;;;4.65;0.70;;;;;;;20.83;46.12;101188.16;16123686;19;130218;-66
2022/09/16 09:58:08;;;;;;;8.48;0.82;;;;;;;20.85;46.40;101193.47;16117860;19;129708;-65
2022/09/16 10:03:30;;;;;;;6.97;0.60;;;;;;;20.86;46.43;101182.09;16124611;19;130156;-65
2022/09/16 10:08:56;;;;;;;4.75;1.08;;;;;;;20.87;46.09;101189.34;16119820;19;129451;-65
2022/09/16 10:14:34;;;;;;;3.97;0.68;;;;;;;20.89;46.37;101178.81;16121498;19;129574;-65
2022/09/16 10:20:06;;;;;;;6.50;0.80;;;;;;;20.88;46.46;101187.38;16124685;19;129922;-65
2022/09/16 10:25:30;;;;;;;9.13;1.10;;;;;;;20.84;46.29;101195.41;16140783;19;129821;-65
2022/09/16 10:30:55;;;;;;;5.13;0.83;;;;;;;20.83;45.83;101202.06;16140457;19;129352;-64
2022/09/16 10:36:20;;;;;;;12.47;0.80;;;;;;;20.80;46.01;101199.78;16136429;19;130316;-64
2022/09/16 10:41:46;;;;;;;5.43;0.85;;;;;;;20.81;46.44;101207.03;16136948;19;129233;-65
2022/09/16 10:47:26;;;;;;;10.70;1.38;;;;;;;20.82;45.97;101200.38;16136080;19;133828;-64
2022/09/16 10:52:48;;;;;;;10.98;1.05;;;;;;;20.84;46.21;101183.47;16136813;19;129472;-65
2022/09/16 10:58:17;;;;;;;8.13;1.10;;;;;;;20.84;45.97;101189.84;16136370;19;130395;-65
2022/09/16 11:03:42;;;;;;;9.15;1.20;;;;;;;20.84;45.75;101192.63;16136993;19;129482;-65
2022/09/16 11:09:18;;;;;;;6.70;1.13;;;;;;;20.84;46.05;101184.28;16137036;19;129695;-64
2022/09/16 11:15:08;;;;;;;4.00;0.98;;;;;;;20.83;45.76;101185.38;16130213;19;129860;-64
2022/09/16 11:21:04;;;;;;;8.90;1.27;;;;;;;20.82;45.76;101200.38;16135602;19;131391;-64
2022/09/16 11:26:35;;;;;;;8.87;1.00;;;;;;;20.76;45.64;101218.09;16134340;19;130053;-67
2022/09/16 11:32:12;;;;;;;10.80;1.42;;;;;;;20.74;45.10;101225.81;16133580;19;129484;-67
2022/09/16 11:37:42;;;;;;;5.05;0.90;;;;;;;20.70;44.78;101228.25;16136815;19;129945;-67
2022/09/16 11:43:28;;;;;;;7.38;1.10;;;;;;;20.67;45.06;101236.25;16131484;19;129683;-67
2022/09/16 11:49:03;;;;;;;4.35;0.93;;;;;;;20.65;44.81;101225.38;16130995;19;129373;-66
2022/09/16 11:54:40;;;;;;;3.40;0.83;;;;;;;20.64;44.68;101220.09;16126686;19;129639;-67
2022/09/16 12:00:09;;;;;;;8.23;0.80;;;;;;;20.64;45.03;101231.22;16132951;19;129071;-67
2022/09/16 12:05:48;;;;;;;5.90;0.70;;;;;;;20.66;44.94;101226.25;16134900;19;129809;-67
2022/09/16 12:11:21;;;;;;;5.70;0.75;;;;;;;20.68;44.50;101229.59;16133658;19;129464;-66
2022/09/16 12:16:52;;;;;;;8.00;0.90;;;;;;;20.68;44.68;101226.81;16132584;19;131650;-67
2022/09/16 12:22:23;;;;;;;3.50;0.80;;;;;;;20.68;44.47;101227.66;16130625;19;131330;-67
2022/09/16 12:27:51;;;;;;;3.20;0.68;;;;;;;20.69;44.77;101234.06;16132917;19;129613;-67
2022/09/16 12:33:19;;;;;;;1.98;0.70;;;;;;;20.67;44.38;101227.94;16131515;19;132296;-67
2022/09/16 12:38:41;;;;;;;2.08;0.60;;;;;;;20.66;44.31;101235.41;16133019;19;129291;-67
2022/09/16 12:44:15;;;;;;;4.13;0.70;;;;;;;20.67;44.47;101239.88;16130304;19;129974;-67
2022/09/16 12:50:14;;;;;;;2.45;0.70;;;;;;;20.65;43.90;101233.72;16130374;19;129056;-66
2022/09/16 12:55:50;;;;;;;3.22;0.90;;;;;;;20.65;43.99;101244.00;16132594;19;129819;-66
2022/09/16 13:01:21;;;;;;;2.60;0.73;;;;;;;20.63;44.03;101229.50;16131580;19;129036;-67
2022/09/16 13:06:54;;;;;;;3.35;0.85;;;;;;;20.64;44.18;101225.66;16130163;19;130438;-67
2022/09/16 13:12:24;;;;;;;2.10;0.50;;;;;;;20.64;44.05;101225.66;16130340;19;129079;-67
2022/09/16 13:18:13;;;;;;;5.03;0.70;;;;;;;20.63;44.10;101213.66;16127344;19;130428;-67
2022/09/16 13:23:42;;;;;;;1.73;0.55;;;;;;;20.62;43.75;101217.53;16129765;19;129215;-67
2022/09/16 13:29:23;;;;;;;5.43;0.57;;;;;;;20.63;43.67;101210.06;16130880;19;129344;-67
2022/09/16 13:34:45;;;;;;;2.85;0.70;;;;;;;20.62;43.98;101211.16;16130168;19;129168;-67
2022/09/16 13:40:14;;;;;;;2.60;0.57;;;;;;;20.62;43.83;101211.16;16128801;19;129902;-67
2022/09/16 13:45:45;;;;;;;1.98;0.60;;;;;;;20.63;44.01;101210.06;16130193;19;129186;-66
2022/09/16 13:51:17;;;;;;;1.92;0.50;;;;;;;20.63;43.72;101218.41;16126311;19;129913;-67
2022/09/16 13:56:55;;;;;;;2.65;0.60;;;;;;;20.62;43.74;101222.28;16137986;19;128922;-67
2022/09/16 14:02:44;;;;;;;1.45;0.43;;;;;;;20.59;43.34;101209.72;16142491;19;131158;-66
2022/09/16 14:08:31;;;;;;;2.63;0.52;;;;;;;20.60;43.43;101222.53;16141920;19;129089;-67
2022/09/16 14:14:00;;;;;;;2.08;0.73;;;;;;;20.58;43.50;101219.16;16141736;19;129258;-67
2022/09/16 14:19:31;;;;;;;3.13;0.70;;;;;;;20.56;43.25;101213.84;16138814;19;130009;-67
2022/09/16 14:24:54;;;;;;;1.60;0.52;;;;;;;20.54;42.84;101216.06;16139610;19;129617;-66
2022/09/16 14:30:27;;;;;;;3.03;0.50;;;;;;;20.55;43.31;101206.63;16140552;19;129671;-66
2022/09/16 14:35:52;;;;;;;2.40;0.60;;;;;;;20.55;43.05;101201.06;16139016;19;130576;-68
2022/09/16 14:41:43;;;;;;;3.33;0.57;;;;;;;20.56;43.07;101202.72;16138143;19;129409;-67
2022/09/16 14:47:17;;;;;;;2.10;0.50;;;;;;;20.54;42.89;101215.19;16138938;19;129786;-67
2022/09/16 14:52:57;;;;;;;1.73;0.50;;;;;;;20.52;43.19;101211.81;16137050;19;130858;-67
2022/09/16 14:58:20;;;;;;;2.78;0.50;;;;;;;20.50;42.92;101217.63;16136486;19;129465;-67
2022/09/16 15:03:53;;;;;;;3.17;0.50;;;;;;;20.50;42.94;101220.41;16135468;19;129182;-67
2022/09/16 15:09:32;;;;;;;3.22;0.60;;;;;;;20.49;42.98;101235.41;16136124;19;129386;-66
2022/09/16 15:14:54;;;;;;;1.83;0.43;;;;;;;20.47;43.24;101265.38;16136688;19;130902;-67
2022/09/16 15:20:22;;;;;;;1.55;0.45;;;;;;;20.45;42.81;101265.66;16135291;19;128996;-67
2022/09/16 15:25:56;;;;;;;3.55;0.80;;;;;;;20.45;42.87;101270.34;16134515;19;129519;-67
2022/09/16 15:31:35;;;;;;;3.22;0.60;;;;;;;20.43;42.97;101253.09;16135870;19;129344;-67
2022/09/16 15:36:57;;;;;;;2.13;0.35;;;;;;;20.40;43.13;101253.59;16136548;19;130317;-67
2022/09/16 15:42:22;;;;;;;1.85;0.52;;;;;;;20.39;43.18;101249.97;16136247;19;130429;-67
2022/09/16 15:47:58;;;;;;;3.73;0.43;;;;;;;20.41;43.14;101266.41;16137018;19;129508;-66
2022/09/16 15:53:32;;;;;;;1.67;0.52;;;;;;;20.40;43.32;101273.03;16137135;19;129868;-67
2022/09/16 15:58:59;;;;;;;1.33;0.40;;;;;;;20.39;43.40;101283.31;16135373;19;129358;-67
2022/09/16 16:04:30;;;;;;;2.25;0.60;;;;;;;20.40;43.26;101282.22;16133087;19;129044;-67
2022/09/16 16:09:52;;;;;;;2.55;0.50;;;;;;;20.37;43.49;101285.47;16135451;19;129464;-67
2022/09/16 16:15:17;;;;;;;1.95;0.50;;;;;;;20.37;43.06;101282.69;16133358;19;130057;-66
2022/09/16 16:20:39;;;;;;;1.57;0.50;;;;;;;20.36;43.33;101281.03;16131437;19;129360;-67
2022/09/16 16:26:06;;;;;;;2.63;0.55;;;;;;;20.37;43.36;101282.69;16132963;19;129503;-67
2022/09/16 16:31:28;;;;;;;1.98;0.40;;;;;;;20.35;43.32;101311.84;16131109;19;128845;-67
2022/09/16 16:36:49;;;;;;;1.70;0.40;;;;;;;20.34;43.33;101315.72;16131108;19;129557;-66
2022/09/16 16:42:12;;;;;;;2.72;0.70;;;;;;;20.33;43.21;101312.09;16129969;19;129669;-67
2022/09/16 16:47:34;;;;;;;1.55;0.50;;;;;;;20.33;43.36;101308.47;16135664;19;129223;-66
2022/09/16 16:52:56;;;;;;;1.55;0.40;;;;;;;20.32;43.72;101298.44;16128991;19;129926;-66
2022/09/16 16:58:18;;;;;;;2.22;0.57;;;;;;;20.31;43.68;101294.81;16130356;19;129577;-66
2022/09/16 17:03:40;;;;;;;1.08;0.50;;;;;;;20.31;43.31;101288.44;16129163;19;129558;-67
2022/09/16 17:09:04;;;;;;;1.60;0.60;;;;;;;20.30;43.69;101304.25;16128926;19;129573;-66
2022/09/16 17:14:28;;;;;;;1.88;0.55;;;;;;;20.31;43.51;101300.38;16128869;19;129492;-67
2022/09/16 17:19:50;;;;;;;2.87;0.87;;;;;;;20.29;43.47;101285.91;16131069;19;129453;-67
2022/09/16 17:25:12;;;;;;;3.10;0.70;;;;;;;20.27;43.75;101294.50;16128390;19;130282;-73
2022/09/16 17:30:33;;;;;;;1.33;0.50;;;;;;;20.26;43.71;101312.25;16126982;19;129705;-70
2022/09/16 17:36:03;;;;;;;2.80;0.60;;;;;;;20.27;43.64;101341.72;16128274;19;129565;-68
2022/09/16 17:41:26;;;;;;;2.42;1.05;;;;;;;20.26;43.64;101333.63;16131618;19;129470;-69
2022/09/16 17:46:48;;;;;;;2.88;1.08;;;;;;;20.25;44.00;101327.22;16128888;19;129366;-71
2022/09/16 17:52:10;;;;;;;3.47;1.05;;;;;;;20.23;44.06;101334.97;16130177;19;129571;-67
2022/09/16 17:57:31;;;;;;;1.67;0.77;;;;;;;20.23;44.09;101325.78;16132417;19;130284;-67
2022/09/16 18:02:54;;;;;;;2.17;0.90;;;;;;;20.23;43.69;101332.19;16130030;19;130662;-63
2022/09/16 18:08:16;;;;;;;1.85;0.80;;;;;;;20.23;43.91;101339.69;16123047;19;129248;-67
2022/09/16 18:13:39;;;;;;;2.88;0.68;;;;;;;20.23;43.77;101326.63;16124828;19;129181;-66
2022/09/16 18:19:02;;;;;;;2.28;0.85;;;;;;;20.22;44.23;101324.09;16122879;19;129258;-66
2022/09/16 18:24:24;;;;;;;2.38;0.77;;;;;;;20.21;44.02;101320.47;16124838;19;129210;-67
2022/09/16 18:29:47;;;;;;;2.10;0.90;;;;;;;20.20;43.87;101324.34;16122983;19;128968;-67
2022/09/16 18:35:10;;;;;;;2.45;0.70;;;;;;;20.20;44.01;101338.22;16121467;19;129928;-66
2022/09/16 18:40:34;;;;;;;1.30;0.60;;;;;;;20.20;44.01;101337.41;16125214;19;129580;-66
2022/09/16 18:46:27;;;;;;;2.50;0.70;;;;;;;20.19;44.02;101336.53;16137749;19;129285;-67
2022/09/16 18:51:51;;;;;;;1.85;0.80;;;;;;;20.18;43.83;101334.88;16136281;19;129778;-67
2022/09/16 18:57:13;;;;;;;1.20;0.60;;;;;;;20.18;43.96;101331.25;16138330;19;129398;-66
2022/09/16 19:02:36;;;;;;;1.33;0.60;;;;;;;20.17;43.96;101310.97;16137570;19;129553;-67
2022/09/16 19:07:57;;;;;;;1.33;0.70;;;;;;;20.17;44.42;101322.06;16137138;19;130535;-66
2022/09/16 19:13:19;;;;;;;1.63;0.52;;;;;;;20.17;44.17;101330.41;16136551;19;129466;-66
2022/09/16 19:18:41;;;;;;;2.08;0.80;;;;;;;20.16;44.21;101325.94;16138056;19;129433;-67
2022/09/16 19:24:05;;;;;;;1.88;0.70;;;;;;;20.16;44.29;101325.94;16136350;19;129777;-67
2022/09/16 19:29:27;;;;;;;1.53;0.67;;;;;;;20.14;44.35;101328.94;16135703;19;130723;-66
2022/09/16 19:34:49;;;;;;;1.25;0.60;;;;;;;20.15;44.61;101335.38;16134216;19;129932;-66
2022/09/16 19:40:10;;;;;;;1.40;0.65;;;;;;;20.14;44.37;101339.22;16134427;19;129588;-66
2022/09/16 19:45:32;;;;;;;1.45;0.50;;;;;;;20.13;44.42;101330.03;16134863;19;129403;-66
2022/09/16 19:50:54;;;;;;;1.52;0.80;;;;;;;20.13;44.32;101349.47;16133800;19;129862;-67
2022/09/16 19:56:20;;;;;;;1.95;0.75;;;;;;;20.14;44.46;101350.34;16133694;19;129138;-66
2022/09/16 20:01:42;;;;;;;2.30;0.70;;;;;;;20.12;44.67;101349.75;16134495;19;129515;-67
2022/09/16 20:07:04;;;;;;;3.78;0.70;;;;;;;20.12;44.67;101349.75;16132848;19;129563;-67
2022/09/16 20:12:26;;;;;;;1.17;0.55;;;;;;;20.11;44.69;101348.03;16133876;19;130409;-67
2022/09/16 20:17:48;;;;;;;2.10;0.70;;;;;;;20.09;44.56;101345.53;16134173;19;129306;-66
2022/09/16 20:23:09;;;;;;;1.33;0.55;;;;;;;20.10;44.51;101351.91;16132217;19;129479;-66
2022/09/16 20:28:36;;;;;;;1.45;0.80;;;;;;;20.08;44.71;101349.41;16133107;19;129354;-66
2022/09/16 20:33:58;;;;;;;1.38;0.50;;;;;;;20.09;44.81;101361.34;16128587;19;130041;-67
2022/09/16 20:39:21;;;;;;;1.05;0.45;;;;;;;20.08;44.83;101362.41;16127302;19;130247;-66
2022/09/16 20:44:42;;;;;;;1.77;0.60;;;;;;;20.07;44.62;101356.03;16131125;19;129560;-67
2022/09/16 20:50:09;;;;;;;1.05;0.50;;;;;;;20.06;44.82;101372.97;16131654;19;129012;-66
2022/09/16 20:55:31;;;;;;;1.95;0.60;;;;;;;20.06;44.86;101376.56;16130801;19;129765;-67
2022/09/16 21:00:53;;;;;;;1.65;0.90;;;;;;;20.05;44.84;101374.88;16130638;19;130687;-66
2022/09/16 21:06:15;;;;;;;1.25;0.50;;;;;;;20.05;44.68;101382.38;16125121;19;128945;-66
2022/09/16 21:11:41;;;;;;;1.75;0.63;;;;;;;20.04;44.68;101372.34;16129713;19;129682;-66
2022/09/16 21:17:03;;;;;;;1.58;0.70;;;;;;;20.04;44.84;101373.19;16128064;19;129690;-66
2022/09/16 21:22:24;;;;;;;0.73;0.38;;;;;;;20.03;44.70;101379.81;16127317;19;130093;-66
2022/09/16 21:27:46;;;;;;;0.95;0.43;;;;;;;20.03;44.86;101381.78;16128451;19;129804;-66
2022/09/16 21:33:08;;;;;;;0.90;0.43;;;;;;;20.02;44.70;101380.91;16126623;19;129242;-66
2022/09/16 21:38:30;;;;;;;0.77;0.47;;;;;;;20.02;44.74;101369.81;16127893;19;129609;-66
2022/09/16 21:43:54;;;;;;;0.80;0.63;;;;;;;20.02;44.54;101380.09;16127846;19;129266;-67
2022/09/16 21:49:22;;;;;;;2.35;0.60;;;;;;;20.01;44.87;101390.31;16124988;19;130159;-66
2022/09/16 21:54:44;;;;;;;1.08;0.70;;;;;;;19.99;44.70;101404.47;16126229;19;129370;-67
2022/09/16 22:00:07;;;;;;;1.35;0.65;;;;;;;19.99;44.58;101410.03;16123183;19;130003;-66
2022/09/16 22:05:29;;;;;;;1.67;0.50;;;;;;;19.98;44.70;101397.19;16124966;19;129566;-66
2022/09/16 22:10:51;;;;;;;0.68;0.55;;;;;;;19.98;44.54;101385.25;16123639;19;129799;-67
2022/09/16 22:16:16;;;;;;;1.45;0.68;;;;;;;19.97;44.75;101389.13;16125402;19;129611;-66
2022/09/16 22:21:40;;;;;;;1.50;0.70;;;;;;;19.96;44.78;101393.81;16140187;19;129617;-67
2022/09/16 22:27:02;;;;;;;1.13;0.30;;;;;;;19.95;45.00;101392.13;16139784;19;129321;-67
2022/09/16 22:32:24;;;;;;;1.40;0.60;;;;;;;19.97;44.56;101389.94;16140275;19;129387;-66
2022/09/16 22:37:48;;;;;;;1.45;0.50;;;;;;;19.97;44.58;101389.13;16137294;19;129445;-67
2022/09/16 22:43:10;;;;;;;1.77;0.47;;;;;;;19.95;44.98;101382.97;16139004;19;129059;-67
2022/09/16 22:48:32;;;;;;;1.52;0.60;;;;;;;19.95;44.88;101386.56;16143773;19;129448;-66
2022/09/16 22:53:54;;;;;;;1.27;0.50;;;;;;;19.94;44.62;101389.59;16156522;19;129479;-66
2022/09/16 22:59:18;;;;;;;0.80;0.50;;;;;;;19.93;44.80;101387.91;16154385;19;129590;-66
2022/09/16 23:04:40;;;;;;;1.98;0.52;;;;;;;19.93;44.89;101399.00;16153185;19;129682;-66
2022/09/16 23:10:02;;;;;;;1.20;0.63;;;;;;;19.91;45.06;101379.84;16153175;19;130534;-66
2022/09/16 23:15:30;;;;;;;1.65;0.57;;;;;;;19.90;45.06;101372.59;16153646;19;130005;-66
2022/09/16 23:20:59;;;;;;;1.40;0.45;;;;;;;19.90;44.90;101386.47;16153488;19;129047;-66
2022/09/16 23:26:25;;;;;;;1.10;0.40;;;;;;;19.91;45.03;101378.97;16151405;19;129109;-66
2022/09/16 23:31:47;;;;;;;0.98;0.50;;;;;;;19.89;45.09;101384.78;16153421;19;128970;-66
2022/09/16 23:37:08;;;;;;;1.63;0.68;;;;;;;19.88;45.10;101391.41;16151674;19;129599;-67
2022/09/16 23:42:30;;;;;;;1.90;0.50;;;;;;;19.88;44.78;101401.69;16153275;19;129723;-66
2022/09/16 23:47:52;;;;;;;1.38;0.52;;;;;;;19.88;44.74;101391.41;16152196;19;129027;-66
2022/09/16 23:53:14;;;;;;;0.98;0.50;;;;;;;19.87;45.10;101414.72;16151321;19;129237;-66
2022/09/16 23:58:36;;;;;;;1.75;0.52;;;;;;;19.87;45.10;101419.44;16151252;19;131210;-66
